• Join FlightAware (Why Join?)
  • Login
  • US Flag 
09:50AM EST


 

Airport Tracker/Info


-or-


 

Live Flight TrackerFlight Track Log ✈ GJS3618 ✈ 03-Jul-2013 ✈ KORD - KBZN

Flight Track Log - Related Links

Times and Time Zones

All times are in EDT time to prevent confusion due to time zone crossing. See the GJS3618 flight status page for this flight to view local times or setup timezone preferences in your user account.

Time Position Orientation Groundspeed Altitude Reporting Facility
EDT Latitude Longitude Course Direction KTS MPH feet Rate Location/Type
10:14PM 41.9500 -87.9833 270° West 206 237 3,700  Level Chicago TRACON
10:15PM 41.9333 -88.0833 257° West 255 293 5,000 900 Climbing Chicago TRACON
10:15PM 41.9344 -88.1492 271° West 259 298 5,400 1,500 Climbing Chicago Center
10:16PM 41.9508 -88.2436 283° West 279 321 7,900 2,400 Climbing Chicago Center
10:17PM 41.9986 -88.3322 306° West 291 335 10,400 2,340 Climbing Chicago Center
10:18PM 42.0531 -88.4392 304° West 291 335 12,800 1,980 Climbing Chicago Center
10:19PM 41.9668 -88.8678 270° West  Level FlightAware Approximate
10:19PM 42.0553 -88.5514 272° West 295 339 14,500  Level Chicago Center
10:21PM 42.0522 -88.6700 268° West 311 358 16,400 1,860 Climbing Chicago Center
10:22PM 42.0486 -88.7933 268° West 329 379 18,400 1,860 Climbing Chicago Center
10:23PM 42.0511 -88.9164 272° West 332 382 20,300 1,800 Climbing Chicago Center
10:24PM 42.0572 -89.0419 274° West 336 387 22,100 1,620 Climbing Chicago Center
10:25PM 42.0639 -89.1714 274° West 347 399 23,700 1,560 Climbing Chicago Center
10:26PM 42.0733 -89.3258 275° West 358 412 25,300 1,440 Climbing Chicago Center
10:27PM 42.0817 -89.4608 275° West 361 415 26,700 1,260 Climbing Chicago Center
10:28PM 42.0917 -89.5994 276° West 370 426 27,900 1,260 Climbing Chicago Center
10:29PM 42.1033 -89.7400 276° West 375 432 29,300 1,020 Climbing Chicago Center
10:30PM 42.1139 -89.8819 276° West 377 434 30,000 660 Climbing Chicago Center
10:31PM 42.1239 -90.0361 275° West 391 450 30,700 780 Climbing Chicago Center
10:32PM 42.1344 -90.1861 275° West 405 466 31,600 780 Climbing Chicago Center
10:33PM 42.1467 -90.3378 276° West 409 471 32,400 720 Climbing Chicago Center
10:34PM 42.1731 -90.4883 283° West 422 486 33,100 660 Climbing Chicago Center
10:35PM 42.2150 -90.6358 291° West 424 488 33,800 720 Climbing Chicago Center
10:36PM 42.2569 -90.7853 291° West 427 491 34,600 720 Climbing Chicago Center
10:37PM 42.2981 -90.9356 290° West 430 495 35,300 660 Climbing Chicago Center
10:38PM 42.3481 -91.1139 291° West 426 490 36,000 300 Climbing Chicago Center
10:39PM 42.3900 -91.2686 290° West 436 502 36,000  Level Chicago Center
10:40PM 42.4331 -91.4286 290° West 452 520 36,000  Level Chicago Center
10:41PM 42.4778 -91.5942 290° West 464 534 36,000  Level Chicago Center
10:42PM 42.5225 -91.7617 290° West 469 540 36,000  Level Chicago Center
10:43PM 42.5656 -91.9264 290° West 464 534 36,000 60 Level Chicago Center
10:44PM 42.6083 -92.0892 290° West 459 528 36,200 600 Climbing Chicago Center
10:45PM 42.6528 -92.2528 290° West 464 534 37,300 840 Climbing Chicago Center
10:46PM 42.6931 -92.4100 289° West 448 516 38,000 300 Climbing Chicago Center
10:47PM 42.7325 -92.5639 289° West 437 503 38,000  Level Chicago Center
10:48PM 42.7792 -92.7486 289° West 434 499 38,000  Level Chicago Center
10:49PM 42.8181 -92.9044 289° West 438 504 38,000  Level Chicago Center
10:50PM 42.8572 -93.0578 289° West 434 499 38,000  Level Chicago Center
10:51PM 42.8956 -93.2103 289° West 430 495 38,000  Level Chicago Center
10:52PM 42.9344 -93.3639 289° West 430 495 38,000  Level Chicago Center
10:53PM 42.9714 -93.5183 288° West 432 497 38,000  Level Chicago Center
10:54PM 43.0097 -93.6739 289° West 434 499 38,000  Level Chicago Center
10:55PM 43.0494 -93.8297 289° West 438 504 38,000  Level Chicago Center
10:56PM 43.0939 -94.0161 288° West 434 499 38,000  Level Chicago Center
10:58PM 43.1444 -94.2350 288° West 436 502 38,000  Level Minneapolis Center
10:59PM 43.1808 -94.3758 290° West 434 499 38,000  Level Minneapolis Center
11:00PM 43.2175 -94.5319 288° West 432 497 38,000  Level Minneapolis Center
11:01PM 43.2539 -94.6886 288° West 433 498 38,000  Level Minneapolis Center
11:02PM 43.2978 -94.8775 288° West 434 499 38,000  Level Minneapolis Center
11:03PM 43.3342 -95.0333 288° West 430 495 38,000  Level Minneapolis Center
11:04PM 43.3703 -95.1897 288° West 429 494 38,000  Level Minneapolis Center
11:05PM 43.4061 -95.3494 287° West 435 501 38,000  Level Minneapolis Center
11:06PM 43.4425 -95.5078 288° West 435 501 38,000  Level Minneapolis Center
11:07PM 43.4783 -95.6667 287° West 435 501 38,000  Level Minneapolis Center
11:08PM 43.5147 -95.8281 287° West 438 504 38,000  Level Minneapolis Center
11:09PM 43.5508 -95.9886 287° West 438 504 38,000  Level Minneapolis Center
11:10PM 43.5861 -96.1489 287° West 436 502 38,000  Level Minneapolis Center
11:11PM 43.6203 -96.3078 287° West 433 498 38,000  Level Minneapolis Center
11:12PM 43.6553 -96.4661 287° West 430 495 38,000  Level Minneapolis Center
11:13PM 43.6892 -96.6250 286° West 429 494 38,000  Level Minneapolis Center
11:14PM 43.7294 -96.8136 287° West 426 490 38,000  Level Minneapolis Center
11:15PM 43.7622 -96.9703 286° West 425 489 38,000  Level Minneapolis Center
11:16PM 43.7953 -97.1300 286° West 429 494 38,000  Level Minneapolis Center
11:17PM 43.8286 -97.2894 286° West 431 496 38,000  Level Minneapolis Center
11:18PM 43.8553 -97.4169 286° West 432 497 38,000  Level Minneapolis Center
11:19PM 43.8939 -97.6089 286° West 430 495 38,000  Level Minneapolis Center
11:20PM 43.9269 -97.7661 286° West 427 491 38,000  Level Minneapolis Center
11:21PM 43.9581 -97.9239 285° West 425 489 38,000  Level Minneapolis Center
11:22PM 43.9900 -98.0814 286° West 426 490 38,000  Level Minneapolis Center
11:23PM 44.0208 -98.2375 285° West 422 486 38,000  Level Minneapolis Center
11:24PM 44.0517 -98.3936 285° West 421 484 38,000  Level Minneapolis Center
11:25PM 44.0883 -98.5803 285° West 418 481 38,000  Level Minneapolis Center
11:26PM 44.1192 -98.7392 285° West 418 481 38,000  Level Minneapolis Center
11:27PM 44.1492 -98.8939 285° West 415 478 38,000  Level Minneapolis Center
11:28PM 44.1781 -99.0500 285° West 416 479 38,000  Level Minneapolis Center
11:29PM 44.2089 -99.2053 286° West 417 480 38,000  Level Minneapolis Center
11:30PM 44.2319 -99.3308 284° West 417 480 38,000  Level Minneapolis Center
11:31PM 44.2661 -99.5197 284° West 418 481 38,000  Level Minneapolis Center
11:32PM 44.2958 -99.6781 285° West 420 483 38,000  Level Minneapolis Center
11:33PM 44.3236 -99.8361 284° West 419 482 38,000  Level Minneapolis Center
11:34PM 44.3531 -99.9925 285° West 417 480 38,000  Level Minneapolis Center
11:35PM 44.3800 -100.1486 284° West 414 476 38,000  Level Minneapolis Center
11:36PM 44.4086 -100.3039 285° West 412 474 38,000  Level Minneapolis Center
11:37PM 44.4364 -100.4594 284° West 411 473 38,000  Level Minneapolis Center
11:38PM 44.4622 -100.6150 283° West 410 472 38,000  Level Minneapolis Center
11:39PM 44.4947 -100.8028 284° West 412 474 38,000  Level Minneapolis Center
11:40PM 44.5214 -100.9597 283° West 413 475 38,000  Level Minneapolis Center
11:41PM 44.5483 -101.1189 283° West 415 478 38,000  Level Minneapolis Center
11:42PM 44.5756 -101.2786 284° West 418 481 38,000  Level Minneapolis Center
11:43PM 44.5975 -101.4067 284° West 423 487 38,000  Level Denver Center
11:44PM 44.6247 -101.5683 283° West 425 489 38,000  Level Denver Center
11:45PM 44.6522 -101.7281 284° West 423 487 38,000  Level Denver Center
11:46PM 44.6781 -101.8886 283° West 422 486 38,000  Level Denver Center
11:47PM 44.7047 -102.0497 283° West 422 486 38,000  Level Denver Center
11:48PM 44.7300 -102.2083 283° West 419 482 38,000  Level Denver Center
11:49PM 44.7544 -102.3644 282° West 412 474 38,000  Level Denver Center
11:50PM 44.7786 -102.5225 282° West 413 475 38,000  Level Denver Center
11:51PM 44.8047 -102.6817 283° West 415 478 38,000  Level Denver Center
11:52PM 44.8286 -102.8392 282° West 413 475 38,000  Level Denver Center
11:53PM 44.8561 -103.0272 282° West 410 472 38,000  Level Denver Center
11:54PM 44.8764 -103.1531 283° West 411 473 38,000  Level Denver Center
11:55PM 44.8917 -103.2575 282° West 409 471 38,000  Level Salt Lake Center
11:56PM 44.9142 -103.4072 282° West 409 471 38,000  Level Salt Lake Center
11:57PM 44.9392 -103.5808 282° West 406 467 38,000  Level Salt Lake Center
11:58PM 44.9508 -103.6589 282° West 409 471 38,000  Level Denver Center
11:59PM 44.9797 -103.8614 281° West 413 475 38,000  Level Denver Center
12:00AM 45.0008 -104.0111 281° West 410 472 38,000  Level Denver Center
12:01AM 45.0231 -104.1628 282° West 412 474 38,000  Level Denver Center
12:02AM 45.0464 -104.3383 281° West 408 470 38,000  Level Denver Center
12:03AM 45.0697 -104.4964 282° West 410 472 38,000  Level Denver Center
12:04AM 45.0900 -104.6525 280° West 406 467 38,000  Level Denver Center
12:05AM 45.1122 -104.8078 282° West 404 465 38,000  Level Denver Center
12:06AM 45.1317 -104.9631 280° West 403 464 38,000  Level Denver Center
12:07AM 45.1533 -105.1189 281° West 404 465 38,000  Level Denver Center
12:08AM 45.1725 -105.2728 280° West 402 463 38,000  Level Denver Center
12:09AM 45.1972 -105.4589 281° West 401 461 38,000  Level Denver Center
12:10AM 45.2128 -105.5842 280° West 403 464 38,000  Level Denver Center
12:11AM 45.2364 -105.7683 280° West 399 459 38,000  Level Denver Center
12:12AM 45.2558 -105.9228 280° West 399 459 38,000  Level Denver Center
12:13AM 45.2750 -106.0778 280° West 400 460 38,000  Level Denver Center
12:14AM 45.2936 -106.2339 280° West 401 461 38,000  Level Denver Center
12:15AM 45.3131 -106.3936 280° West 408 470 38,000  Level Denver Center
12:16AM 45.3317 -106.5511 280° West 408 470 38,000  Level Denver Center
12:17AM 45.3581 -106.7739 280° West 408 470 38,000  Level Salt Lake Center
12:18AM 45.3761 -106.9331 279° West 409 471 38,000  Level Salt Lake Center
12:19AM 45.3936 -107.0900 279° West 406 467 38,000  Level Salt Lake Center
12:21AM 45.4094 -107.2431 278° West 397 457 38,000  Level Salt Lake Center
12:22AM 45.4278 -107.3994 280° West 400 460 38,000  Level Salt Lake Center
12:23AM 45.4444 -107.5539 279° West 398 458 38,000  Level Salt Lake Center
12:24AM 45.4619 -107.7094 279° West 402 463 38,100  Climbing Salt Lake Center
12:25AM 45.4814 -107.8956 279° West 397 457 38,000 -60 Descending Salt Lake Center
12:26AM 45.4978 -108.0542 278° West 406 467 38,000  Level Salt Lake Center
12:27AM 45.5139 -108.2117 278° West 406 467 38,000  Level Salt Lake Center
12:28AM 45.5286 -108.3669 278° West 401 461 38,000  Level Salt Lake Center
12:29AM 45.5453 -108.5250 279° West 405 466 38,000  Level Salt Lake Center
12:30AM 45.5600 -108.6808 278° West 400 460 38,000 -240 Level Salt Lake Center
12:31AM 45.5761 -108.8364 278° West 399 459 37,600 -1,440 Descending Salt Lake Center
12:32AM 45.5906 -108.9914 278° West 395 455 35,100 -2,580 Descending Salt Lake Center
12:33AM 45.6089 -109.1711 278° West 384 442 32,400 -2,460 Descending Salt Lake Center
12:34AM 45.6222 -109.3131 278° West 366 421 30,200 -2,160 Descending Salt Lake Center
12:35AM 45.6353 -109.4522 278° West 355 409 28,000 -2,160 Descending Salt Lake Center
12:36AM 45.6475 -109.5883 277° West 348 400 25,800 -2,220 Descending Salt Lake Center
12:37AM 45.6597 -109.7225 277° West 344 396 23,600 -2,220 Descending Salt Lake Center
12:38AM 45.6719 -109.8553 278° West 339 390 21,400 -2,160 Descending Salt Lake Center
12:39AM 45.6828 -109.9853 277° West 333 383 19,200 -2,040 Descending Salt Lake Center
12:40AM 45.6919 -110.1136 276° West 328 377 17,300 -1,800 Descending Salt Lake Center
12:41AM 45.7044 -110.2389 278° West 322 371 15,600 -1,920 Descending Salt Lake Center
12:42AM 45.7156 -110.3783 277° West 301 346 13,400 -1,680 Descending Salt Lake Center
12:43AM 45.7247 -110.4875 277° West 284 327 12,200 -660 Descending Salt Lake Center
12:44AM 45.7333 -110.5883 277° West 265 305 12,100 -60 Descending Salt Lake Center
12:45AM 45.7675 -110.6744 300° West 254 292 12,100  Level Salt Lake Center
12:46AM 45.8056 -110.7617 302° West 256 295 12,100  Level Salt Lake Center
12:47AM 45.8361 -110.8456 298° West 255 293 12,100  Level Salt Lake Center
12:48AM 45.8778 -110.9453 301° West 247 284 12,100  Level Salt Lake Center
12:49AM 45.9111 -111.0281 300° West 244 281 12,100  Level Salt Lake Center
12:50AM 45.9444 -111.1108 300° West 243 280 12,100  Level Salt Lake Center
12:51AM 45.9772 -111.1947 299° West 244 281 12,100 -120 Level Salt Lake Center
12:52AM 46.0097 -111.2756 300° West 240 276 11,900 -960 Descending Salt Lake Center
12:53AM 45.9928 -111.3503 252° West 221 254 10,200 -1,680 Descending Salt Lake Center
12:54AM 45.9453 -111.3811 204° Southwest 230 265 8,600 -1,380 Descending Salt Lake Center
12:55AM 45.9014 -111.3242 138° Southeast 219 252 7,400 -1,140 Descending Salt Lake Center
12:56AM 45.8536 -111.2589 136° Southeast 208 239 6,300 -1,020 Descending Salt Lake Center
12:57AM 45.8233 -111.2158 135° Southeast 179 206 5,400 -840 Descending Salt Lake Center
12:58AM 45.7936 -111.1750 136° Southeast 159 183 4,700 -720 Descending Salt Lake Center